Sawbridgeworth, United Kingdom
Current Conditions -  °F | °C
As of 3:50 PM on Friday 19 Dec 2014 (Local Time) from EGSS Reporting Station
Scattered Clouds Scattered Clouds  
Wind Chill: 41°   Ceiling: Unl
Heat Index: 46°   Visibility: 6mi
Dew Point: 36°   Wind: 12mph
Humidity: 66%   Direction: 260°W
Pressure: 30.03"   Gusts: NA
Location:  51.8°N, 0.14°E
Report Text: EGSS 191550Z 26010KT 9999 SCT037 08/02 Q1017
Loading
Personal Weather Stations






























Interactive Weather Map New forecast layout! Learn more

10-Day Weather Forecast

Advertisements
Track Severe Weather on mobile